sensor_id;sensor_type;location;lat;lon;timestamp;P1;P2;P0
23240;PMS7003;11789;53.482;9.862;2023-09-19T00:01:06;1.50;1.50;1.00
23240;PMS7003;11789;53.482;9.862;2023-09-19T00:03:37;2.00;2.00;2.00
23240;PMS7003;11789;53.482;9.862;2023-09-19T00:06:04;2.00;2.00;2.00
23240;PMS7003;11789;53.482;9.862;2023-09-19T00:08:30;2.75;2.75;2.00
23240;PMS7003;11789;53.482;9.862;2023-09-19T00:10:58;2.00;2.00;1.00
23240;PMS7003;11789;53.482;9.862;2023-09-19T00:13:31;2.50;2.50;2.00
23240;PMS7003;11789;53.482;9.862;2023-09-19T00:15:58;4.50;3.00;2.00
23240;PMS7003;11789;53.482;9.862;2023-09-19T00:18:25;2.00;2.00;1.75
23240;PMS7003;11789;53.482;9.862;2023-09-19T00:21:00;3.75;3.75;3.00
23240;PMS7003;11789;53.482;9.862;2023-09-19T00:23:26;2.00;2.00;2.00
23240;PMS7003;11789;53.482;9.862;2023-09-19T00:25:53;2.00;2.00;2.00
23240;PMS7003;11789;53.482;9.862;2023-09-19T00:28:22;3.00;3.00;2.00
23240;PMS7003;11789;53.482;9.862;2023-09-19T00:30:48;1.25;1.25;1.25
23240;PMS7003;11789;53.482;9.862;2023-09-19T00:33:16;3.00;3.00;2.75
23240;PMS7003;11789;53.482;9.862;2023-09-19T00:35:53;4.25;3.00;2.00
23240;PMS7003;11789;53.482;9.862;2023-09-19T00:38:20;3.00;3.00;2.00
23240;PMS7003;11789;53.482;9.862;2023-09-19T00:40:48;3.25;3.25;2.00
23240;PMS7003;11789;53.482;9.862;2023-09-19T00:43:14;3.00;3.00;2.00
23240;PMS7003;11789;53.482;9.862;2023-09-19T00:45:42;3.00;3.00;2.00
23240;PMS7003;11789;53.482;9.862;2023-09-19T00:48:09;3.25;3.25;2.00
23240;PMS7003;11789;53.482;9.862;2023-09-19T00:50:35;2.50;2.50;2.00
23240;PMS7003;11789;53.482;9.862;2023-09-19T00:53:01;5.00;3.00;3.00
23240;PMS7003;11789;53.482;9.862;2023-09-19T00:55:34;3.50;3.50;3.25
23240;PMS7003;11789;53.482;9.862;2023-09-19T00:58:02;4.00;4.00;3.00
23240;PMS7003;11789;53.482;9.862;2023-09-19T01:00:28;5.00;3.00;3.00
23240;PMS7003;11789;53.482;9.862;2023-09-19T01:02:54;4.00;4.00;3.50
23240;PMS7003;11789;53.482;9.862;2023-09-19T01:05:20;5.00;5.00;4.00
23240;PMS7003;11789;53.482;9.862;2023-09-19T01:07:46;3.50;3.25;3.00
23240;PMS7003;11789;53.482;9.862;2023-09-19T01:10:15;5.00;5.00;3.50
23240;PMS7003;11789;53.482;9.862;2023-09-19T01:12:53;4.00;4.00;3.50
23240;PMS7003;11789;53.482;9.862;2023-09-19T01:21:11;5.50;4.00;3.00
23240;PMS7003;11789;53.482;9.862;2023-09-19T01:27:00;4.00;4.00;4.00
23240;PMS7003;11789;53.482;9.862;2023-09-19T01:29:42;8.00;5.00;5.00
23240;PMS7003;11789;53.482;9.862;2023-09-19T01:32:11;5.50;5.50;4.75
23240;PMS7003;11789;53.482;9.862;2023-09-19T01:34:44;6.25;6.25;4.75
23240;PMS7003;11789;53.482;9.862;2023-09-19T01:37:14;5.00;5.00;4.00
23240;PMS7003;11789;53.482;9.862;2023-09-19T01:39:44;5.25;5.25;4.00
23240;PMS7003;11789;53.482;9.862;2023-09-19T01:45:10;6.00;4.50;3.25
23240;PMS7003;11789;53.482;9.862;2023-09-19T01:47:41;7.00;6.00;4.50
23240;PMS7003;11789;53.482;9.862;2023-09-19T01:50:16;4.50;4.50;3.75
23240;PMS7003;11789;53.482;9.862;2023-09-19T01:52:57;5.00;5.00;4.25
23240;PMS7003;11789;53.482;9.862;2023-09-19T01:55:29;7.25;5.75;4.00
23240;PMS7003;11789;53.482;9.862;2023-09-19T01:58:06;6.75;6.00;4.25
23240;PMS7003;11789;53.482;9.862;2023-09-19T02:00:35;5.00;5.00;5.00
23240;PMS7003;11789;53.482;9.862;2023-09-19T02:03:05;7.00;6.00;4.50
23240;PMS7003;11789;53.482;9.862;2023-09-19T02:05:31;8.25;6.75;5.00
23240;PMS7003;11789;53.482;9.862;2023-09-19T02:07:58;7.00;7.00;5.75
23240;PMS7003;11789;53.482;9.862;2023-09-19T02:10:23;7.50;7.00;5.75
23240;PMS7003;11789;53.482;9.862;2023-09-19T02:12:49;5.75;5.75;4.50
23240;PMS7003;11789;53.482;9.862;2023-09-19T02:15:16;6.00;6.00;5.25
23240;PMS7003;11789;53.482;9.862;2023-09-19T02:17:44;7.50;7.00;5.00
23240;PMS7003;11789;53.482;9.862;2023-09-19T02:20:11;7.00;5.75;5.00
23240;PMS7003;11789;53.482;9.862;2023-09-19T02:22:38;5.25;5.25;4.50
23240;PMS7003;11789;53.482;9.862;2023-09-19T02:25:04;4.50;4.50;4.00
23240;PMS7003;11789;53.482;9.862;2023-09-19T02:27:30;6.50;6.50;5.25
23240;PMS7003;11789;53.482;9.862;2023-09-19T02:29:56;4.00;4.00;3.75
23240;PMS7003;11789;53.482;9.862;2023-09-19T02:32:21;6.00;4.75;4.00
23240;PMS7003;11789;53.482;9.862;2023-09-19T02:34:48;7.50;6.00;5.00
23240;PMS7003;11789;53.482;9.862;2023-09-19T02:37:14;4.00;4.00;4.00
23240;PMS7003;11789;53.482;9.862;2023-09-19T02:39:41;4.50;4.50;4.00
23240;PMS7003;11789;53.482;9.862;2023-09-19T02:42:07;4.75;3.00;3.00
23240;PMS7003;11789;53.482;9.862;2023-09-19T02:44:33;8.75;5.25;4.50
23240;PMS7003;11789;53.482;9.862;2023-09-19T02:46:59;5.00;4.50;4.00
23240;PMS7003;11789;53.482;9.862;2023-09-19T02:49:24;4.75;4.75;3.75
23240;PMS7003;11789;53.482;9.862;2023-09-19T02:51:50;4.50;4.00;3.00
23240;PMS7003;11789;53.482;9.862;2023-09-19T02:54:16;4.25;4.25;3.75
23240;PMS7003;11789;53.482;9.862;2023-09-19T02:56:43;4.25;4.00;3.25
23240;PMS7003;11789;53.482;9.862;2023-09-19T02:59:08;6.00;4.00;3.00
23240;PMS7003;11789;53.482;9.862;2023-09-19T03:01:35;5.50;4.00;3.25
23240;PMS7003;11789;53.482;9.862;2023-09-19T03:04:02;6.50;4.75;3.50
23240;PMS7003;11789;53.482;9.862;2023-09-19T03:06:28;6.25;3.25;3.00
23240;PMS7003;11789;53.482;9.862;2023-09-19T03:08:56;5.00;4.50;3.00
23240;PMS7003;11789;53.482;9.862;2023-09-19T03:11:37;4.75;4.75;3.25
23240;PMS7003;11789;53.482;9.862;2023-09-19T03:14:02;4.75;4.75;3.75
23240;PMS7003;11789;53.482;9.862;2023-09-19T03:16:29;3.50;3.50;3.00
23240;PMS7003;11789;53.482;9.862;2023-09-19T03:18:55;4.00;3.00;3.00
23240;PMS7003;11789;53.482;9.862;2023-09-19T03:21:20;3.50;3.50;2.50
23240;PMS7003;11789;53.482;9.862;2023-09-19T03:23:46;4.00;4.00;3.00
23240;PMS7003;11789;53.482;9.862;2023-09-19T03:26:12;3.00;3.00;3.00
23240;PMS7003;11789;53.482;9.862;2023-09-19T03:28:41;3.50;3.50;3.00
23240;PMS7003;11789;53.482;9.862;2023-09-19T03:31:07;3.75;3.50;3.00
23240;PMS7003;11789;53.482;9.862;2023-09-19T03:33:33;3.00;3.00;2.25
23240;PMS7003;11789;53.482;9.862;2023-09-19T03:35:59;2.25;2.25;2.00
23240;PMS7003;11789;53.482;9.862;2023-09-19T03:38:32;3.00;3.00;2.00
23240;PMS7003;11789;53.482;9.862;2023-09-19T03:40:59;3.50;3.50;2.50
23240;PMS7003;11789;53.482;9.862;2023-09-19T03:43:26;4.00;3.00;2.25
23240;PMS7003;11789;53.482;9.862;2023-09-19T03:45:52;2.00;2.00;2.00
23240;PMS7003;11789;53.482;9.862;2023-09-19T03:48:19;3.00;3.00;2.00
23240;PMS7003;11789;53.482;9.862;2023-09-19T03:50:44;5.00;2.00;1.00
23240;PMS7003;11789;53.482;9.862;2023-09-19T03:53:10;1.00;1.00;1.00
23240;PMS7003;11789;53.482;9.862;2023-09-19T03:55:35;2.75;2.00;1.75
23240;PMS7003;11789;53.482;9.862;2023-09-19T03:58:01;2.00;2.00;1.75
23240;PMS7003;11789;53.482;9.862;2023-09-19T04:00:27;1.00;1.00;1.00
23240;PMS7003;11789;53.482;9.862;2023-09-19T04:02:54;1.00;1.00;1.00
23240;PMS7003;11789;53.482;9.862;2023-09-19T04:05:21;2.00;2.00;1.00
23240;PMS7003;11789;53.482;9.862;2023-09-19T04:07:56;1.75;1.75;1.00
23240;PMS7003;11789;53.482;9.862;2023-09-19T04:10:22;2.75;1.00;1.00
23240;PMS7003;11789;53.482;9.862;2023-09-19T04:12:51;2.00;2.00;1.00
23240;PMS7003;11789;53.482;9.862;2023-09-19T04:15:18;0.50;0.50;0.50
23240;PMS7003;11789;53.482;9.862;2023-09-19T04:17:44;5.75;2.00;1.00
23240;PMS7003;11789;53.482;9.862;2023-09-19T04:20:09;1.00;1.00;1.00
23240;PMS7003;11789;53.482;9.862;2023-09-19T04:22:37;1.50;1.00;1.00
23240;PMS7003;11789;53.482;9.862;2023-09-19T04:25:04;1.00;1.00;0.25
23240;PMS7003;11789;53.482;9.862;2023-09-19T04:27:29;1.00;1.00;1.00
23240;PMS7003;11789;53.482;9.862;2023-09-19T04:29:54;3.25;1.00;1.00
23240;PMS7003;11789;53.482;9.862;2023-09-19T04:32:33;1.75;1.75;1.00
23240;PMS7003;11789;53.482;9.862;2023-09-19T04:35:01;0.25;0.25;0.00
23240;PMS7003;11789;53.482;9.862;2023-09-19T04:37:30;2.00;2.00;1.00
23240;PMS7003;11789;53.482;9.862;2023-09-19T04:39:55;1.50;1.00;0.50
23240;PMS7003;11789;53.482;9.862;2023-09-19T04:42:21;2.00;0.00;0.00
23240;PMS7003;11789;53.482;9.862;2023-09-19T04:44:50;1.00;1.00;1.00
23240;PMS7003;11789;53.482;9.862;2023-09-19T04:47:19;2.00;1.25;1.00
23240;PMS7003;11789;53.482;9.862;2023-09-19T04:49:44;1.75;0.75;0.00
23240;PMS7003;11789;53.482;9.862;2023-09-19T04:52:09;3.00;1.00;1.00
23240;PMS7003;11789;53.482;9.862;2023-09-19T04:54:35;1.00;1.00;1.00
23240;PMS7003;11789;53.482;9.862;2023-09-19T04:57:00;1.25;1.00;1.00
23240;PMS7003;11789;53.482;9.862;2023-09-19T04:59:26;1.00;1.00;0.75
23240;PMS7003;11789;53.482;9.862;2023-09-19T05:01:53;1.50;1.00;0.75
23240;PMS7003;11789;53.482;9.862;2023-09-19T05:04:18;1.00;1.00;0.25
23240;PMS7003;11789;53.482;9.862;2023-09-19T05:06:44;3.00;1.25;1.00
23240;PMS7003;11789;53.482;9.862;2023-09-19T05:09:10;1.50;1.50;1.00
23240;PMS7003;11789;53.482;9.862;2023-09-19T05:11:35;2.00;0.25;0.25
23240;PMS7003;11789;53.482;9.862;2023-09-19T05:14:03;1.00;1.00;1.00
23240;PMS7003;11789;53.482;9.862;2023-09-19T05:16:29;1.00;1.00;1.00
23240;PMS7003;11789;53.482;9.862;2023-09-19T05:18:57;2.50;1.00;1.00
23240;PMS7003;11789;53.482;9.862;2023-09-19T05:21:25;1.00;1.00;1.00
23240;PMS7003;11789;53.482;9.862;2023-09-19T05:23:53;1.75;1.75;1.25
23240;PMS7003;11789;53.482;9.862;2023-09-19T05:26:20;2.00;2.00;1.50
23240;PMS7003;11789;53.482;9.862;2023-09-19T05:28:46;1.00;1.00;1.00
23240;PMS7003;11789;53.482;9.862;2023-09-19T05:31:13;1.00;1.00;0.25
23240;PMS7003;11789;53.482;9.862;2023-09-19T05:33:39;2.00;2.00;2.00
23240;PMS7003;11789;53.482;9.862;2023-09-19T05:36:04;1.00;1.00;1.00
23240;PMS7003;11789;53.482;9.862;2023-09-19T05:38:30;3.00;1.25;1.00
23240;PMS7003;11789;53.482;9.862;2023-09-19T05:40:57;1.00;1.00;0.50
23240;PMS7003;11789;53.482;9.862;2023-09-19T05:43:23;4.00;2.00;1.50
23240;PMS7003;11789;53.482;9.862;2023-09-19T05:45:49;1.00;1.00;0.00
23240;PMS7003;11789;53.482;9.862;2023-09-19T05:48:17;2.50;2.00;1.00
23240;PMS7003;11789;53.482;9.862;2023-09-19T05:50:42;1.00;1.00;1.00
23240;PMS7003;11789;53.482;9.862;2023-09-19T05:53:08;2.50;2.00;1.00
23240;PMS7003;11789;53.482;9.862;2023-09-19T05:55:37;2.00;2.00;1.75
23240;PMS7003;11789;53.482;9.862;2023-09-19T05:58:02;1.25;1.25;1.00
23240;PMS7003;11789;53.482;9.862;2023-09-19T06:00:29;2.00;2.00;1.50
23240;PMS7003;11789;53.482;9.862;2023-09-19T06:02:55;2.25;2.00;1.50
23240;PMS7003;11789;53.482;9.862;2023-09-19T06:05:22;4.50;3.00;2.00
23240;PMS7003;11789;53.482;9.862;2023-09-19T06:07:48;2.00;2.00;1.00
23240;PMS7003;11789;53.482;9.862;2023-09-19T06:10:15;2.00;2.00;1.00
23240;PMS7003;11789;53.482;9.862;2023-09-19T06:12:42;2.75;2.75;1.50
23240;PMS7003;11789;53.482;9.862;2023-09-19T06:15:12;4.00;2.00;2.00
23240;PMS7003;11789;53.482;9.862;2023-09-19T06:17:46;2.00;2.00;1.25
23240;PMS7003;11789;53.482;9.862;2023-09-19T06:20:13;4.00;1.00;1.00
23240;PMS7003;11789;53.482;9.862;2023-09-19T06:22:42;3.00;2.00;1.00
23240;PMS7003;11789;53.482;9.862;2023-09-19T06:28:22;2.00;2.00;2.00
23240;PMS7003;11789;53.482;9.862;2023-09-19T06:30:49;4.75;2.00;2.00
23240;PMS7003;11789;53.482;9.862;2023-09-19T06:33:15;2.00;2.00;2.00
23240;PMS7003;11789;53.482;9.862;2023-09-19T06:35:42;2.00;2.00;1.00
23240;PMS7003;11789;53.482;9.862;2023-09-19T06:38:09;4.25;1.50;1.00
23240;PMS7003;11789;53.482;9.862;2023-09-19T06:40:38;3.25;2.00;1.75
23240;PMS7003;11789;53.482;9.862;2023-09-19T06:43:03;1.25;1.25;1.00
23240;PMS7003;11789;53.482;9.862;2023-09-19T06:45:30;3.00;3.00;2.25
23240;PMS7003;11789;53.482;9.862;2023-09-19T06:47:57;2.25;2.00;1.25
23240;PMS7003;11789;53.482;9.862;2023-09-19T06:50:23;4.50;3.00;2.00
23240;PMS7003;11789;53.482;9.862;2023-09-19T06:52:52;4.00;2.75;2.00
23240;PMS7003;11789;53.482;9.862;2023-09-19T06:55:21;2.75;2.75;2.00
23240;PMS7003;11789;53.482;9.862;2023-09-19T06:57:49;3.25;1.75;1.00
23240;PMS7003;11789;53.482;9.862;2023-09-19T07:00:14;2.50;2.50;1.75
23240;PMS7003;11789;53.482;9.862;2023-09-19T07:02:44;1.00;1.00;1.00
23240;PMS7003;11789;53.482;9.862;2023-09-19T07:05:10;2.00;2.00;2.00
23240;PMS7003;11789;53.482;9.862;2023-09-19T07:07:35;4.25;2.00;1.00
23240;PMS7003;11789;53.482;9.862;2023-09-19T07:10:01;3.50;2.00;2.00
23240;PMS7003;11789;53.482;9.862;2023-09-19T07:12:30;3.50;2.00;1.00
23240;PMS7003;11789;53.482;9.862;2023-09-19T07:14:58;2.00;2.00;2.00
23240;PMS7003;11789;53.482;9.862;2023-09-19T07:17:23;3.00;3.00;1.00
23240;PMS7003;11789;53.482;9.862;2023-09-19T07:19:49;6.75;3.50;2.00
23240;PMS7003;11789;53.482;9.862;2023-09-19T07:22:15;3.50;2.75;1.25
23240;PMS7003;11789;53.482;9.862;2023-09-19T07:24:41;2.75;2.75;2.00
23240;PMS7003;11789;53.482;9.862;2023-09-19T07:27:06;3.00;2.00;1.00
23240;PMS7003;11789;53.482;9.862;2023-09-19T07:29:32;3.00;3.00;2.25
23240;PMS7003;11789;53.482;9.862;2023-09-19T07:31:57;3.25;3.25;2.25
23240;PMS7003;11789;53.482;9.862;2023-09-19T07:34:23;6.00;3.00;2.50
23240;PMS7003;11789;53.482;9.862;2023-09-19T07:36:48;3.25;3.25;3.00
23240;PMS7003;11789;53.482;9.862;2023-09-19T07:39:14;4.00;2.25;2.00
23240;PMS7003;11789;53.482;9.862;2023-09-19T07:41:39;4.00;2.75;1.75
23240;PMS7003;11789;53.482;9.862;2023-09-19T07:44:04;4.50;2.50;1.25
23240;PMS7003;11789;53.482;9.862;2023-09-19T07:46:30;5.25;2.25;2.00
23240;PMS7003;11789;53.482;9.862;2023-09-19T07:48:56;4.00;2.00;2.00
23240;PMS7003;11789;53.482;9.862;2023-09-19T07:51:22;3.00;3.00;2.00
23240;PMS7003;11789;53.482;9.862;2023-09-19T07:53:48;3.00;3.00;2.00
23240;PMS7003;11789;53.482;9.862;2023-09-19T07:56:14;2.75;2.75;2.25
23240;PMS7003;11789;53.482;9.862;2023-09-19T07:58:39;3.00;3.00;2.50
23240;PMS7003;11789;53.482;9.862;2023-09-19T08:01:09;2.50;2.50;2.00
23240;PMS7003;11789;53.482;9.862;2023-09-19T08:03:36;4.75;4.75;3.00
23240;PMS7003;11789;53.482;9.862;2023-09-19T08:06:06;5.00;3.25;2.00
23240;PMS7003;11789;53.482;9.862;2023-09-19T08:08:32;3.25;2.00;2.00
23240;PMS7003;11789;53.482;9.862;2023-09-19T08:11:02;2.75;2.75;2.00
23240;PMS7003;11789;53.482;9.862;2023-09-19T08:13:40;3.25;3.25;2.25
23240;PMS7003;11789;53.482;9.862;2023-09-19T08:16:11;4.00;3.00;3.00
23240;PMS7003;11789;53.482;9.862;2023-09-19T08:18:37;3.75;3.75;2.00
23240;PMS7003;11789;53.482;9.862;2023-09-19T08:21:05;4.75;3.00;3.00
23240;PMS7003;11789;53.482;9.862;2023-09-19T08:23:33;3.00;3.00;2.00
23240;PMS7003;11789;53.482;9.862;2023-09-19T08:25:58;5.50;4.00;2.00
23240;PMS7003;11789;53.482;9.862;2023-09-19T08:28:28;5.50;4.00;2.25
23240;PMS7003;11789;53.482;9.862;2023-09-19T08:30:54;4.00;2.75;2.00
23240;PMS7003;11789;53.482;9.862;2023-09-19T08:33:20;5.00;3.00;2.00
23240;PMS7003;11789;53.482;9.862;2023-09-19T08:35:46;3.00;3.00;2.00
23240;PMS7003;11789;53.482;9.862;2023-09-19T08:38:11;4.00;4.00;3.00
23240;PMS7003;11789;53.482;9.862;2023-09-19T08:40:40;2.00;2.00;1.25
23240;PMS7003;11789;53.482;9.862;2023-09-19T08:43:07;5.00;2.50;2.00
23240;PMS7003;11789;53.482;9.862;2023-09-19T08:45:33;2.75;2.75;2.00
23240;PMS7003;11789;53.482;9.862;2023-09-19T08:50:31;3.75;3.75;3.00
23240;PMS7003;11789;53.482;9.862;2023-09-19T08:53:01;8.00;3.25;2.25
23240;PMS7003;11789;53.482;9.862;2023-09-19T08:55:36;5.50;3.75;3.00
23240;PMS7003;11789;53.482;9.862;2023-09-19T08:58:06;6.00;4.00;2.25
23240;PMS7003;11789;53.482;9.862;2023-09-19T09:00:39;3.00;3.00;3.00
23240;PMS7003;11789;53.482;9.862;2023-09-19T09:03:09;3.75;3.75;3.00
23240;PMS7003;11789;53.482;9.862;2023-09-19T09:05:36;6.00;3.00;2.00
23240;PMS7003;11789;53.482;9.862;2023-09-19T09:08:01;4.50;4.50;3.25
23240;PMS7003;11789;53.482;9.862;2023-09-19T09:10:30;4.00;4.00;2.25
23240;PMS7003;11789;53.482;9.862;2023-09-19T09:12:55;2.75;2.75;2.00
23240;PMS7003;11789;53.482;9.862;2023-09-19T09:15:23;4.00;4.00;2.00
23240;PMS7003;11789;53.482;9.862;2023-09-19T09:17:49;5.25;2.00;2.00
23240;PMS7003;11789;53.482;9.862;2023-09-19T09:20:18;3.00;3.00;2.25
23240;PMS7003;11789;53.482;9.862;2023-09-19T09:22:54;2.50;2.50;2.00
23240;PMS7003;11789;53.482;9.862;2023-09-19T09:25:21;2.50;2.00;1.25
23240;PMS7003;11789;53.482;9.862;2023-09-19T09:27:59;2.00;2.00;1.00
23240;PMS7003;11789;53.482;9.862;2023-09-19T09:30:33;4.50;2.75;1.75
23240;PMS7003;11789;53.482;9.862;2023-09-19T09:33:09;2.75;2.75;2.00
23240;PMS7003;11789;53.482;9.862;2023-09-19T09:35:37;3.00;3.00;2.00
23240;PMS7003;11789;53.482;9.862;2023-09-19T09:38:22;2.50;2.00;2.00
23240;PMS7003;11789;53.482;9.862;2023-09-19T09:40:53;4.00;1.00;1.00
23240;PMS7003;11789;53.482;9.862;2023-09-19T09:43:40;1.25;1.25;1.00
23240;PMS7003;11789;53.482;9.862;2023-09-19T09:46:26;3.00;1.50;1.25
23240;PMS7003;11789;53.482;9.862;2023-09-19T09:51:43;2.00;0.00;0.00
23240;PMS7003;11789;53.482;9.862;2023-09-19T09:54:32;1.75;1.75;0.50
23240;PMS7003;11789;53.482;9.862;2023-09-19T09:57:05;1.00;1.00;1.00
23240;PMS7003;11789;53.482;9.862;2023-09-19T09:59:53;1.50;1.50;1.00
23240;PMS7003;11789;53.482;9.862;2023-09-19T10:02:30;3.00;1.00;1.00
23240;PMS7003;11789;53.482;9.862;2023-09-19T10:05:11;2.00;1.50;1.00
23240;PMS7003;11789;53.482;9.862;2023-09-19T10:07:55;1.00;1.00;1.00
23240;PMS7003;11789;53.482;9.862;2023-09-19T10:10:32;1.00;1.00;0.00
23240;PMS7003;11789;53.482;9.862;2023-09-19T10:13:08;1.25;1.25;1.00
23240;PMS7003;11789;53.482;9.862;2023-09-19T10:15:40;5.00;2.00;1.00
23240;PMS7003;11789;53.482;9.862;2023-09-19T10:18:11;1.00;1.00;1.00
23240;PMS7003;11789;53.482;9.862;2023-09-19T10:20:43;2.00;2.00;1.00
23240;PMS7003;11789;53.482;9.862;2023-09-19T10:23:11;3.50;2.00;1.00
23240;PMS7003;11789;53.482;9.862;2023-09-19T10:25:41;3.25;2.00;1.00
23240;PMS7003;11789;53.482;9.862;2023-09-19T10:28:10;1.00;1.00;1.00
23240;PMS7003;11789;53.482;9.862;2023-09-19T10:30:40;6.25;2.50;1.50
23240;PMS7003;11789;53.482;9.862;2023-09-19T10:33:10;3.75;2.00;1.75
23240;PMS7003;11789;53.482;9.862;2023-09-19T10:35:38;2.50;2.50;2.00
23240;PMS7003;11789;53.482;9.862;2023-09-19T10:38:09;2.00;2.00;1.00
23240;PMS7003;11789;53.482;9.862;2023-09-19T10:40:36;2.00;2.00;1.25
23240;PMS7003;11789;53.482;9.862;2023-09-19T10:43:08;2.75;1.00;1.00
23240;PMS7003;11789;53.482;9.862;2023-09-19T10:45:37;2.75;1.00;1.00
23240;PMS7003;11789;53.482;9.862;2023-09-19T10:48:05;3.33;1.33;1.00
23240;PMS7003;11789;53.482;9.862;2023-09-19T10:50:36;2.00;2.00;1.00
23240;PMS7003;11789;53.482;9.862;2023-09-19T10:53:10;2.25;2.00;1.25
23240;PMS7003;11789;53.482;9.862;2023-09-19T10:55:37;3.75;2.25;2.00
23240;PMS7003;11789;53.482;9.862;2023-09-19T10:58:04;1.00;1.00;1.00
23240;PMS7003;11789;53.482;9.862;2023-09-19T11:00:58;2.75;2.75;1.00
23240;PMS7003;11789;53.482;9.862;2023-09-19T11:03:35;1.00;1.00;1.00
23240;PMS7003;11789;53.482;9.862;2023-09-19T11:06:03;2.00;2.00;1.00
23240;PMS7003;11789;53.482;9.862;2023-09-19T11:30:37;3.75;1.00;1.00
23240;PMS7003;11789;53.482;9.862;2023-09-19T11:46:25;3.00;1.00;1.00
23240;PMS7003;11789;53.482;9.862;2023-09-19T11:48:53;3.75;1.00;0.50
23240;PMS7003;11789;53.482;9.862;2023-09-19T11:51:26;1.00;1.00;0.25
23240;PMS7003;11789;53.482;9.862;2023-09-19T11:53:52;1.00;1.00;1.00
23240;PMS7003;11789;53.482;9.862;2023-09-19T11:56:23;2.00;2.00;1.00
23240;PMS7003;11789;53.482;9.862;2023-09-19T11:58:51;2.00;2.00;1.75
23240;PMS7003;11789;53.482;9.862;2023-09-19T12:01:22;2.00;2.00;1.00
23240;PMS7003;11789;53.482;9.862;2023-09-19T12:04:11;2.00;2.00;1.00
23240;PMS7003;11789;53.482;9.862;2023-09-19T12:06:37;3.00;1.75;1.00
23240;PMS7003;11789;53.482;9.862;2023-09-19T12:09:07;3.00;2.00;1.00
23240;PMS7003;11789;53.482;9.862;2023-09-19T12:11:41;2.33;1.67;1.00
23240;PMS7003;11789;53.482;9.862;2023-09-19T12:14:09;2.00;2.00;1.50
23240;PMS7003;11789;53.482;9.862;2023-09-19T12:16:35;3.67;2.00;1.00
23240;PMS7003;11789;53.482;9.862;2023-09-19T12:19:17;2.75;2.25;1.25
23240;PMS7003;11789;53.482;9.862;2023-09-19T12:21:53;4.00;2.00;2.00
23240;PMS7003;11789;53.482;9.862;2023-09-19T12:24:19;3.00;2.00;1.25
23240;PMS7003;11789;53.482;9.862;2023-09-19T12:26:45;3.00;3.00;2.00
23240;PMS7003;11789;53.482;9.862;2023-09-19T12:29:20;3.00;2.00;1.00
23240;PMS7003;11789;53.482;9.862;2023-09-19T12:31:50;3.75;3.75;1.50
23240;PMS7003;11789;53.482;9.862;2023-09-19T12:34:19;3.25;3.00;2.00
23240;PMS7003;11789;53.482;9.862;2023-09-19T12:36:46;5.75;2.00;1.50
23240;PMS7003;11789;53.482;9.862;2023-09-19T12:39:22;3.00;3.00;2.00
23240;PMS7003;11789;53.482;9.862;2023-09-19T12:41:48;3.00;3.00;2.00
23240;PMS7003;11789;53.482;9.862;2023-09-19T12:44:16;3.00;1.00;1.00
23240;PMS7003;11789;53.482;9.862;2023-09-19T12:46:43;2.00;2.00;2.00
23240;PMS7003;11789;53.482;9.862;2023-09-19T12:49:16;5.25;2.00;1.75
23240;PMS7003;11789;53.482;9.862;2023-09-19T12:51:42;3.50;2.00;1.50
23240;PMS7003;11789;53.482;9.862;2023-09-19T12:54:09;5.00;2.00;2.00
23240;PMS7003;11789;53.482;9.862;2023-09-19T12:56:45;4.75;3.25;3.00
23240;PMS7003;11789;53.482;9.862;2023-09-19T12:59:13;4.00;3.00;2.00
23240;PMS7003;11789;53.482;9.862;2023-09-19T13:01:40;2.00;2.00;1.67
23240;PMS7003;11789;53.482;9.862;2023-09-19T13:06:47;6.00;2.25;2.00
23240;PMS7003;11789;53.482;9.862;2023-09-19T13:09:16;4.00;2.00;2.00
23240;PMS7003;11789;53.482;9.862;2023-09-19T13:11:43;2.00;1.75;1.00
23240;PMS7003;11789;53.482;9.862;2023-09-19T13:14:20;2.50;2.00;1.00
23240;PMS7003;11789;53.482;9.862;2023-09-19T13:17:02;1.00;1.00;0.67
23240;PMS7003;11789;53.482;9.862;2023-09-19T13:25:01;4.00;2.00;1.00
23240;PMS7003;11789;53.482;9.862;2023-09-19T13:27:29;1.00;1.00;1.00
23240;PMS7003;11789;53.482;9.862;2023-09-19T13:29:55;2.33;2.00;1.00
23240;PMS7003;11789;53.482;9.862;2023-09-19T13:32:20;3.00;3.00;2.00
23240;PMS7003;11789;53.482;9.862;2023-09-19T13:34:46;3.00;1.00;1.00
23240;PMS7003;11789;53.482;9.862;2023-09-19T13:37:11;3.00;3.00;1.67
23240;PMS7003;11789;53.482;9.862;2023-09-19T13:39:38;1.75;1.50;1.25
23240;PMS7003;11789;53.482;9.862;2023-09-19T13:42:08;2.75;2.75;1.75
23240;PMS7003;11789;53.482;9.862;2023-09-19T13:44:37;1.00;1.00;1.00
23240;PMS7003;11789;53.482;9.862;2023-09-19T13:47:03;1.00;1.00;1.00
23240;PMS7003;11789;53.482;9.862;2023-09-19T13:49:34;1.50;1.50;1.00
23240;PMS7003;11789;53.482;9.862;2023-09-19T13:52:00;3.50;2.00;2.00
23240;PMS7003;11789;53.482;9.862;2023-09-19T13:54:28;4.00;2.25;2.00
23240;PMS7003;11789;53.482;9.862;2023-09-19T13:56:53;4.00;2.75;1.00
23240;PMS7003;11789;53.482;9.862;2023-09-19T13:59:19;3.00;2.00;1.00
23240;PMS7003;11789;53.482;9.862;2023-09-19T14:01:48;4.50;3.00;2.00
23240;PMS7003;11789;53.482;9.862;2023-09-19T14:04:19;5.00;3.00;3.00
23240;PMS7003;11789;53.482;9.862;2023-09-19T14:06:46;3.33;2.00;1.33
23240;PMS7003;11789;53.482;9.862;2023-09-19T14:09:11;3.00;2.00;1.00
23240;PMS7003;11789;53.482;9.862;2023-09-19T14:11:38;2.67;2.67;2.00
23240;PMS7003;11789;53.482;9.862;2023-09-19T14:14:04;5.00;2.00;2.00
23240;PMS7003;11789;53.482;9.862;2023-09-19T14:16:31;4.33;2.00;1.67
23240;PMS7003;11789;53.482;9.862;2023-09-19T14:18:57;3.00;3.00;2.00
23240;PMS7003;11789;53.482;9.862;2023-09-19T14:21:23;1.67;1.67;1.00
23240;PMS7003;11789;53.482;9.862;2023-09-19T14:23:49;5.50;2.50;1.00
23240;PMS7003;11789;53.482;9.862;2023-09-19T14:26:14;2.00;2.00;1.33
23240;PMS7003;11789;53.482;9.862;2023-09-19T14:28:41;3.00;3.00;2.00
23240;PMS7003;11789;53.482;9.862;2023-09-19T14:31:07;4.33;2.33;1.00
23240;PMS7003;11789;53.482;9.862;2023-09-19T14:33:34;3.00;3.00;1.33
23240;PMS7003;11789;53.482;9.862;2023-09-19T14:36:18;3.00;3.00;2.00
23240;PMS7003;11789;53.482;9.862;2023-09-19T14:38:44;4.00;4.00;2.75
23240;PMS7003;11789;53.482;9.862;2023-09-19T14:41:09;5.00;3.33;2.33
23240;PMS7003;11789;53.482;9.862;2023-09-19T14:43:35;1.67;1.00;1.00
23240;PMS7003;11789;53.482;9.862;2023-09-19T14:46:04;4.33;2.00;1.00
23240;PMS7003;11789;53.482;9.862;2023-09-19T14:48:30;2.67;2.00;2.00
23240;PMS7003;11789;53.482;9.862;2023-09-19T14:50:57;2.00;2.00;2.00
23240;PMS7003;11789;53.482;9.862;2023-09-19T14:53:27;4.33;2.00;1.67
23240;PMS7003;11789;53.482;9.862;2023-09-19T14:55:53;4.00;2.33;2.00
23240;PMS7003;11789;53.482;9.862;2023-09-19T14:58:20;9.33;3.00;2.00
23240;PMS7003;11789;53.482;9.862;2023-09-19T15:00:46;4.00;2.67;1.67
23240;PMS7003;11789;53.482;9.862;2023-09-19T15:03:12;6.67;3.00;2.00
23240;PMS7003;11789;53.482;9.862;2023-09-19T15:05:38;2.00;2.00;1.00
23240;PMS7003;11789;53.482;9.862;2023-09-19T15:08:04;5.00;3.33;2.33
23240;PMS7003;11789;53.482;9.862;2023-09-19T15:10:31;2.00;2.00;2.00
23240;PMS7003;11789;53.482;9.862;2023-09-19T15:12:56;2.00;2.00;1.67
23240;PMS7003;11789;53.482;9.862;2023-09-19T15:15:22;4.67;2.00;1.00
23240;PMS7003;11789;53.482;9.862;2023-09-19T15:17:47;2.33;2.33;2.00
23240;PMS7003;11789;53.482;9.862;2023-09-19T15:20:13;2.50;2.00;1.00
23240;PMS7003;11789;53.482;9.862;2023-09-19T15:22:39;3.50;3.50;3.00
23240;PMS7003;11789;53.482;9.862;2023-09-19T15:25:05;4.50;3.50;2.50
23240;PMS7003;11789;53.482;9.862;2023-09-19T15:27:31;4.00;4.00;2.00
23240;PMS7003;11789;53.482;9.862;2023-09-19T15:29:59;3.50;3.50;3.00
23240;PMS7003;11789;53.482;9.862;2023-09-19T15:32:25;4.00;4.00;3.00
23240;PMS7003;11789;53.482;9.862;2023-09-19T15:34:51;5.00;3.25;2.50